Kezdőlap
METAR-TAF:

METAR-TAF

Repülőterek :

Alpnach, Svájc

földrajzi szélesség: 46-56-19N, földrajzi hosszúság: 8-17-03E, magasság: 440 m

Jelenlegi meteorológiai megfigyelések

A jelentés 29 perccel ezelõtt készült, 18:20 UTC
Nyugat-délnyugati szél 4 kt, déli és nyugat-északnyugati között változik
Hőmérséklet 3°C
Páratartalom 87%
Légköri nyomás 1028 hPa
Látótávolság 10 km, vagy több
Kevés felhő 2200 lábon
Borult 4300 lábon
enyhe esõ

METAR: LSMA 191820Z AUTO 24004KT 190V300 9999NDV -RA FEW022 OVC043 03/01 Q1028 RMK

Idő: 19:49 (18:49 UTC)


TAF: hiányzik

Meteorológiai megfigyelések és előrejelzések több, mint 4000 repülőtéren (METAR és TAF jelentéseket).

A térképen piros és sárga pontok jelzik az elérhető meteorológiai állomásokat.

Mozgassa az egeret a pont fölött, hogy megjelenjen az állomás neve.

Azután kattintson az időjárási megfigyelések és előrejelzések megtekintéséhez.

A térkép megváltoztatása: kattintson a fekete keresztel jelölt zöld gombra ráközelítéshez, a vonallal jelölt zöld gombra távolításhoz, vagy a zöld nyilakra a szomszédos térképek eléréséhez.


METAR-TAF: